Time;durP1;ratioP1;P1;durP2;ratioP2;P2;SDS_P1;SDS_P2;PMS_P1;PMS_P2;Temp;Humidity;BMP_temperature;BMP_pressure;BME280_temperature;BME280_humidity;BME280_pressure;Samples;Min_cycle;Max_cycle;Signal;HPM_P1;HPM_P2
2022/08/29 00:00:11;;;;;;;;;;;;;;;17.66;79.54;100765.81;1694861;83;84354;-62
2022/08/29 00:02:37;;;;;;;;;;;;;;;17.65;79.60;100771.69;1694516;83;26558;-62
2022/08/29 00:05:04;;;;;;;;;;;;;;;17.63;79.65;100770.06;1683838;83;84114;-62
2022/08/29 00:07:29;;;;;;;;;;;;;;;17.60;79.58;100767.08;1696407;83;27458;-62
2022/08/29 00:09:55;;;;;;;;;;;;;;;17.59;79.69;100769.89;1694382;83;84655;-62
2022/08/29 00:12:21;;;;;;;;;;;;;;;17.56;79.67;100772.33;1695491;83;25776;-62
2022/08/29 00:14:46;;;;;;;;;;;;;;;17.52;79.73;100768.97;1693651;83;25790;-62
2022/08/29 00:17:12;;;;;;;;;;;;;;;17.50;79.88;100768.70;1688874;83;84219;-62
2022/08/29 00:19:41;;;;;;;;;;;;;;;17.44;79.87;100767.77;1671614;83;47742;-61
2022/08/29 00:22:06;;;;;;;;;;;;;;;17.46;80.00;100764.47;1684503;83;84261;-61
2022/08/29 00:24:32;;;;;;;;;;;;;;;17.43;80.13;100771.45;1692950;83;26116;-61
2022/08/29 00:27:00;;;;;;;;;;;;;;;17.41;80.16;100772.92;1693479;83;26536;-61
2022/08/29 00:29:26;;;;;;;;;;;;;;;17.40;80.24;100773.03;1689705;83;85322;-61
2022/08/29 00:31:51;;;;;;;;;;;;;;;17.38;80.33;100771.78;1691824;83;27561;-61
2022/08/29 00:34:17;;;;;;;;;;;;;;;17.37;80.31;100770.05;1690418;83;85221;-61
2022/08/29 00:36:42;;;;;;;;;;;;;;;17.35;80.27;100773.83;1695027;83;25779;-61
2022/08/29 00:39:08;;;;;;;;;;;;;;;17.32;80.32;100764.56;1683102;83;25845;-61
2022/08/29 00:41:34;;;;;;;;;;;;;;;17.28;80.37;100761.20;1659604;84;85014;-61
2022/08/29 00:44:00;;;;;;;;;;;;;;;17.25;80.48;100769.54;1659616;85;27402;-61
2022/08/29 00:46:37;;;;;;;;;;;;;;;17.24;80.46;100771.87;1658742;83;84235;-61
2022/08/29 00:49:10;;;;;;;;;;;;;;;17.22;80.51;100777.01;1647043;85;25706;-61
2022/08/29 00:51:36;;;;;;;;;;;;;;;17.19;80.55;100774.89;1644630;85;26501;-61
2022/08/29 00:54:05;;;;;;;;;;;;;;;17.18;80.67;100779.06;1663663;84;84729;-61
2022/08/29 00:56:31;;;;;;;;;;;;;;;17.14;80.97;100772.98;1658355;85;28145;-61
2022/08/29 00:59:03;;;;;;;;;;;;;;;17.14;81.07;100775.69;1656596;85;84902;-61
2022/08/29 01:01:29;;;;;;;;;;;;;;;17.11;81.08;100777.26;1655308;85;25844;-61
2022/08/29 01:03:55;;;;;;;;;;;;;;;17.08;81.30;100778.82;1651682;84;84894;-62
2022/08/29 01:06:21;;;;;;;;;;;;;;;17.06;81.25;100783.47;1655754;85;26410;-61
2022/08/29 01:08:47;;;;;;;;;;;;;;;17.02;81.38;100782.44;1655071;85;29506;-61
2022/08/29 01:14:00;;;;;;;;;;;;;;;16.95;81.81;100788.75;1629456;86;25804;-61
2022/08/29 01:16:27;;;;;;;;;;;;;;;16.91;81.91;100786.35;1625250;86;85410;-62
2022/08/29 01:18:56;;;;;;;;;;;;;;;16.88;82.35;100796.91;1630163;86;25736;-61
2022/08/29 01:21:46;;;;;;;;;;;;;;;16.84;82.45;100798.95;1626514;86;27427;-61
2022/08/29 01:24:19;;;;;;;;;;;;;;;16.81;82.59;100793.73;1627827;86;84035;-63
2022/08/29 01:26:46;;;;;;;;;;;;;;;16.78;82.79;100793.07;1625739;86;26081;-62
2022/08/29 01:29:13;;;;;;;;;;;;;;;16.75;82.99;100793.28;1623686;86;84449;-62
2022/08/29 01:31:44;;;;;;;;;;;;;;;16.74;82.91;100795.60;1620585;86;25958;-64
2022/08/29 01:34:12;;;;;;;;;;;;;;;16.72;82.98;100794.83;1645061;85;84076;-62
2022/08/29 01:36:47;;;;;;;;;;;;;;;16.68;83.35;100798.23;1655823;85;26469;-62
2022/08/29 01:39:13;;;;;;;;;;;;;;;16.66;83.41;100794.76;1660087;84;25788;-64
2022/08/29 01:41:41;;;;;;;;;;;;;;;16.64;83.70;100801.20;1686174;83;85329;-64
2022/08/29 01:44:10;;;;;;;;;;;;;;;16.61;83.67;100803.63;1696313;83;26082;-62
2022/08/29 01:46:36;;;;;;;;;;;;;;;16.57;83.76;100808.86;1694783;83;85523;-64
2022/08/29 01:49:06;;;;;;;;;;;;;;;16.53;83.93;100804.13;1693800;83;25832;-65
2022/08/29 01:51:33;;;;;;;;;;;;;;;16.49;84.22;100808.01;1694705;83;25789;-64
2022/08/29 01:53:59;;;;;;;;;;;;;;;16.45;84.37;100801.55;1690758;83;84346;-64
2022/08/29 01:56:27;;;;;;;;;;;;;;;16.41;84.54;100803.58;1686958;83;27091;-64
2022/08/29 01:58:56;;;;;;;;;;;;;;;16.35;84.72;100805.33;1689687;83;85204;-64
2022/08/29 02:01:24;;;;;;;;;;;;;;;16.31;84.95;100809.20;1685851;83;25698;-64
2022/08/29 02:03:54;;;;;;;;;;;;;;;16.26;85.06;100805.92;1694351;83;84280;-64
2022/08/29 02:06:20;;;;;;;;;;;;;;;16.22;85.30;100806.61;1695019;83;26391;-62
2022/08/29 02:08:46;;;;;;;;;;;;;;;16.13;85.21;100795.02;1691520;83;25705;-62
2022/08/29 02:11:16;;;;;;;;;;;;;;;16.15;85.19;100803.91;1693480;83;84728;-62
2022/08/29 02:13:46;;;;;;;;;;;;;;;16.11;85.23;100803.72;1694548;83;27174;-62
2022/08/29 02:16:12;;;;;;;;;;;;;;;16.08;85.23;100805.75;1693057;83;85082;-62
2022/08/29 02:18:41;;;;;;;;;;;;;;;16.04;85.43;100799.67;1693109;83;25853;-62
2022/08/29 02:21:08;;;;;;;;;;;;;;;15.98;85.40;100797.83;1694490;83;25860;-62
2022/08/29 02:23:35;;;;;;;;;;;;;;;15.99;85.36;100801.80;1692849;83;84162;-62
2022/08/29 02:26:01;;;;;;;;;;;;;;;15.96;85.35;100796.58;1697020;83;26002;-62
2022/08/29 02:28:27;;;;;;;;;;;;;;;15.91;85.27;100796.00;1692049;83;85165;-62
2022/08/29 02:30:53;;;;;;;;;;;;;;;15.87;85.22;100788.57;1694839;83;26472;-62
2022/08/29 02:33:20;;;;;;;;;;;;;;;15.83;85.13;100792.42;1679089;83;26062;-62
2022/08/29 02:35:49;;;;;;;;;;;;;;;15.78;85.22;100792.33;1691048;83;84363;-64
2022/08/29 02:38:15;;;;;;;;;;;;;;;15.74;85.21;100788.08;1697799;83;27280;-62
2022/08/29 02:40:42;;;;;;;;;;;;;;;15.70;85.18;100791.94;1686060;83;84106;-62
2022/08/29 02:43:08;;;;;;;;;;;;;;;15.64;85.18;100792.31;1696997;83;25983;-63
2022/08/29 02:45:36;;;;;;;;;;;;;;;15.60;85.20;100798.91;1695233;83;26896;-62
2022/08/29 02:48:02;;;;;;;;;;;;;;;15.57;85.12;100806.72;1695094;83;85347;-62
2022/08/29 02:50:29;;;;;;;;;;;;;;;15.52;85.05;100805.62;1682438;83;25847;-62
2022/08/29 02:52:55;;;;;;;;;;;;;;;15.49;85.05;100808.98;1689757;83;84396;-62
2022/08/29 02:55:22;;;;;;;;;;;;;;;15.44;85.04;100806.57;1692819;83;25835;-62
2022/08/29 02:57:50;;;;;;;;;;;;;;;15.40;85.08;100802.80;1694661;83;26225;-62
2022/08/29 03:00:20;;;;;;;;;;;;;;;15.37;85.05;100814.66;1693875;83;83765;-62
2022/08/29 03:02:46;;;;;;;;;;;;;;;15.32;84.98;100811.84;1694341;83;25825;-62
2022/08/29 03:05:13;;;;;;;;;;;;;;;15.25;84.97;100808.16;1693763;83;85047;-62
2022/08/29 03:07:39;;;;;;;;;;;;;;;15.21;84.99;100816.54;1695312;83;27139;-62
2022/08/29 03:10:06;;;;;;;;;;;;;;;15.17;85.03;100821.25;1694160;83;85087;-63
2022/08/29 03:12:35;;;;;;;;;;;;;;;15.13;85.06;100823.75;1701679;83;28503;-62
2022/08/29 03:15:02;;;;;;;;;;;;;;;15.10;85.06;100824.41;1691872;83;25769;-62
2022/08/29 03:17:28;;;;;;;;;;;;;;;15.05;85.07;100818.41;1686863;83;84859;-62
2022/08/29 03:19:53;;;;;;;;;;;;;;;15.01;85.02;100818.20;1691941;83;27677;-62
2022/08/29 03:22:19;;;;;;;;;;;;;;;14.97;85.07;100830.14;1695064;83;84352;-62
2022/08/29 03:24:45;;;;;;;;;;;;;;;14.89;85.08;100819.31;1692359;83;27400;-62
2022/08/29 03:27:10;;;;;;;;;;;;;;;14.84;85.13;100826.80;1691662;83;26073;-62
2022/08/29 03:29:37;;;;;;;;;;;;;;;14.82;85.12;100835.95;1695113;83;84888;-62
2022/08/29 03:32:04;;;;;;;;;;;;;;;14.77;85.04;100820.50;1691325;83;25803;-62
2022/08/29 03:34:30;;;;;;;;;;;;;;;14.72;85.07;100824.81;1686750;83;84600;-62
2022/08/29 03:36:56;;;;;;;;;;;;;;;14.66;85.10;100827.86;1692286;83;28059;-62
2022/08/29 03:39:22;;;;;;;;;;;;;;;14.63;85.05;100823.13;1691767;83;25704;-62
2022/08/29 03:41:50;;;;;;;;;;;;;;;14.58;85.12;100826.95;1694884;82;84181;-62
2022/08/29 03:44:16;;;;;;;;;;;;;;;14.50;85.12;100818.43;1700337;82;27847;-62
2022/08/29 03:46:42;;;;;;;;;;;;;;;14.50;85.19;100831.91;1705824;82;83937;-62
2022/08/29 03:49:08;;;;;;;;;;;;;;;14.47;85.21;100832.09;1706895;82;27476;-62
2022/08/29 03:51:35;;;;;;;;;;;;;;;14.45;85.22;100833.13;1708313;82;25813;-62
2022/08/29 03:54:01;;;;;;;;;;;;;;;14.44;85.19;100843.53;1712666;82;84361;-62
2022/08/29 03:56:27;;;;;;;;;;;;;;;14.42;85.19;100837.34;1705878;82;26146;-62
2022/08/29 03:58:54;;;;;;;;;;;;;;;14.40;85.18;100841.45;1706801;82;85206;-62
2022/08/29 04:01:23;;;;;;;;;;;;;;;14.40;85.12;100845.48;1707844;82;27459;-62
2022/08/29 04:03:53;;;;;;;;;;;;;;;14.37;85.05;100845.66;1707148;82;25836;-62
2022/08/29 04:06:19;;;;;;;;;;;;;;;14.34;85.04;100840.44;1705965;82;84203;-62
2022/08/29 04:08:47;;;;;;;;;;;;;;;14.31;85.04;100840.61;1682599;84;27691;-62
2022/08/29 04:11:14;;;;;;;;;;;;;;;14.30;85.00;100845.13;1706271;82;84056;-62
2022/08/29 04:13:40;;;;;;;;;;;;;;;14.28;84.93;100842.12;1705648;82;27851;-62
2022/08/29 04:16:16;;;;;;;;;;;;;;;14.23;84.80;100846.91;1706688;82;84262;-62
2022/08/29 04:18:42;;;;;;;;;;;;;;;14.19;84.90;100853.42;1707333;82;25734;-62
2022/08/29 04:21:08;;;;;;;;;;;;;;;14.16;84.92;100857.16;1707050;82;25781;-62
2022/08/29 04:23:35;;;;;;;;;;;;;;;14.14;84.99;100854.15;1702617;82;84179;-62
2022/08/29 04:26:02;;;;;;;;;;;;;;;14.11;84.94;100861.92;1706855;82;28298;-62
2022/08/29 04:28:28;;;;;;;;;;;;;;;14.09;84.93;100856.23;1706991;82;84264;-63
2022/08/29 04:30:54;;;;;;;;;;;;;;;14.07;84.92;100852.74;1703884;82;25814;-62
2022/08/29 04:33:22;;;;;;;;;;;;;;;14.03;84.87;100855.21;1706362;82;27877;-63
2022/08/29 04:35:48;;;;;;;;;;;;;;;13.99;84.80;100865.29;1704185;82;84974;-63
2022/08/29 04:38:15;;;;;;;;;;;;;;;13.96;84.87;100864.97;1704323;82;26419;-63
2022/08/29 04:40:41;;;;;;;;;;;;;;;13.95;84.85;100867.28;1704327;82;84298;-62
2022/08/29 04:43:08;;;;;;;;;;;;;;;13.96;84.83;100860.06;1706274;82;25874;-63
2022/08/29 04:45:34;;;;;;;;;;;;;;;13.97;84.83;100867.20;1709581;82;26650;-63
2022/08/29 04:48:03;;;;;;;;;;;;;;;13.96;84.75;100862.76;1699719;82;84382;-65
2022/08/29 04:50:29;;;;;;;;;;;;;;;13.97;84.74;100862.67;1707001;82;27487;-65
2022/08/29 04:52:55;;;;;;;;;;;;;;;13.97;84.72;100870.76;1704584;82;84280;-64
2022/08/29 04:55:23;;;;;;;;;;;;;;;13.97;84.67;100865.37;1707070;82;25795;-64
2022/08/29 04:57:52;;;;;;;;;;;;;;;13.98;84.63;100866.23;1707704;81;26465;-64
2022/08/29 05:00:20;;;;;;;;;;;;;;;13.98;84.60;100863.06;1685868;82;84874;-64
2022/08/29 05:02:46;;;;;;;;;;;;;;;13.97;84.60;100859.11;1708588;82;27453;-63
2022/08/29 05:05:13;;;;;;;;;;;;;;;13.97;84.56;100864.02;1708433;82;84688;-63
2022/08/29 05:07:41;;;;;;;;;;;;;;;13.98;84.58;100872.98;1707316;82;25821;-63
2022/08/29 05:10:13;;;;;;;;;;;;;;;13.96;84.54;100866.33;1707686;82;84263;-66
2022/08/29 05:12:40;;;;;;;;;;;;;;;13.98;84.56;100869.81;1713082;82;25607;-66
2022/08/29 05:15:06;;;;;;;;;;;;;;;13.98;84.51;100865.77;1707292;82;29534;-63
2022/08/29 05:17:32;;;;;;;;;;;;;;;14.01;84.47;100873.29;1706109;82;84067;-65
2022/08/29 05:19:58;;;;;;;;;;;;;;;14.03;84.39;100877.64;1703525;81;26542;-63
2022/08/29 05:22:23;;;;;;;;;;;;;;;14.07;84.38;100878.35;1698405;82;84275;-63
2022/08/29 05:24:49;;;;;;;;;;;;;;;14.09;84.28;100873.75;1706597;82;25835;-65
2022/08/29 05:27:17;;;;;;;;;;;;;;;14.11;84.29;100878.10;1705923;82;27495;-64
2022/08/29 05:29:45;;;;;;;;;;;;;;;14.13;84.24;100878.02;1705089;82;84784;-62
2022/08/29 05:32:13;;;;;;;;;;;;;;;14.14;84.17;100881.11;1705097;82;26452;-61
2022/08/29 05:34:41;;;;;;;;;;;;;;;14.15;84.14;100878.80;1709743;82;84544;-64
2022/08/29 05:37:09;;;;;;;;;;;;;;;14.18;84.14;100888.08;1710816;82;25809;-64
2022/08/29 05:39:37;;;;;;;;;;;;;;;14.21;84.04;100882.52;1698998;82;28123;-64
2022/08/29 05:42:03;;;;;;;;;;;;;;;14.25;84.03;100889.48;1696880;82;84315;-62
2022/08/29 05:44:31;;;;;;;;;;;;;;;14.29;83.95;100888.36;1691648;83;26048;-64
2022/08/29 05:46:58;;;;;;;;;;;;;;;14.31;83.88;100893.19;1682544;83;84107;-62
2022/08/29 05:49:24;;;;;;;;;;;;;;;14.34;83.85;100893.50;1692482;83;25726;-64
2022/08/29 05:51:54;;;;;;;;;;;;;;;14.38;83.83;100889.20;1690941;83;27486;-65
2022/08/29 05:54:21;;;;;;;;;;;;;;;14.45;83.74;100894.69;1691523;83;84936;-64
2022/08/29 05:56:47;;;;;;;;;;;;;;;14.51;83.66;100897.04;1690367;83;26219;-62
2022/08/29 05:59:13;;;;;;;;;;;;;;;14.57;83.64;100904.80;1694749;83;84428;-62
2022/08/29 06:01:39;;;;;;;;;;;;;;;14.64;83.61;100904.45;1692839;83;25917;-62
2022/08/29 06:04:05;;;;;;;;;;;;;;;14.73;83.57;100899.89;1688486;83;84624;-63
2022/08/29 06:06:31;;;;;;;;;;;;;;;14.81;83.48;100899.84;1696018;83;25868;-63
2022/08/29 06:08:58;;;;;;;;;;;;;;;14.87;83.35;100894.09;1692305;83;25916;-63
2022/08/29 06:11:28;;;;;;;;;;;;;;;14.97;83.34;100896.27;1687113;83;84451;-65
2022/08/29 06:13:55;;;;;;;;;;;;;;;15.03;83.18;100895.44;1685550;83;25764;-66
2022/08/29 06:16:23;;;;;;;;;;;;;;;15.08;83.03;100895.17;1692485;83;85232;-65
2022/08/29 06:18:49;;;;;;;;;;;;;;;15.10;82.93;100897.30;1694518;83;26205;-65
2022/08/29 06:21:15;;;;;;;;;;;;;;;15.11;82.87;100898.56;1691891;83;25838;-66
2022/08/29 06:23:42;;;;;;;;;;;;;;;15.16;82.80;100903.22;1691018;83;84364;-64
2022/08/29 06:26:10;;;;;;;;;;;;;;;15.21;82.73;100905.65;1698397;83;25800;-66
2022/08/29 06:28:38;;;;;;;;;;;;;;;15.24;82.55;100904.99;1694021;83;84072;-65
2022/08/29 06:31:06;;;;;;;;;;;;;;;15.30;82.54;100902.89;1695051;83;25842;-66
2022/08/29 06:33:32;;;;;;;;;;;;;;;15.35;82.47;100899.44;1694997;83;25990;-64
2022/08/29 06:35:58;;;;;;;;;;;;;;;15.42;82.40;100908.92;1692319;83;84181;-64
2022/08/29 06:38:24;;;;;;;;;;;;;;;15.50;82.32;100910.69;1692355;83;25509;-64
2022/08/29 06:40:49;;;;;;;;;;;;;;;15.56;82.25;100906.27;1692290;83;84404;-64
2022/08/29 06:43:15;;;;;;;;;;;;;;;15.64;82.22;100903.98;1700336;82;26267;-66
2022/08/29 06:45:42;;;;;;;;;;;;;;;15.72;82.08;100906.22;1699914;82;25792;-64
2022/08/29 06:48:09;;;;;;;;;;;;;;;15.75;81.97;100893.87;1696396;82;84023;-64
2022/08/29 06:50:36;;;;;;;;;;;;;;;15.82;81.95;100909.62;1693331;83;26644;-65
2022/08/29 06:53:02;;;;;;;;;;;;;;;15.83;81.80;100899.67;1697236;83;83995;-66
2022/08/29 06:55:28;;;;;;;;;;;;;;;15.93;81.75;100911.67;1694913;82;26631;-65
2022/08/29 06:57:54;;;;;;;;;;;;;;;15.98;81.66;100916.31;1698326;82;26105;-66
2022/08/29 07:00:20;;;;;;;;;;;;;;;16.08;81.61;100920.67;1706038;83;83866;-65
2022/08/29 07:02:48;;;;;;;;;;;;;;;16.16;81.54;100921.06;1698810;83;26393;-65
2022/08/29 07:05:14;;;;;;;;;;;;;;;16.29;81.31;100931.51;1694520;83;84157;-66
2022/08/29 07:07:41;;;;;;;;;;;;;;;16.38;81.31;100931.41;1697952;83;26089;-66
2022/08/29 07:10:07;;;;;;;;;;;;;;;16.49;81.22;100926.20;1685794;83;84439;-65
2022/08/29 07:12:34;;;;;;;;;;;;;;;16.55;81.03;100930.73;1684576;83;25789;-65
2022/08/29 07:15:00;;;;;;;;;;;;;;;16.62;80.98;100928.99;1691008;82;25793;-67
2022/08/29 07:17:28;;;;;;;;;;;;;;;16.65;80.77;100935.11;1692275;83;84151;-65
2022/08/29 07:19:55;;;;;;;;;;;;;;;16.68;80.58;100943.52;1689665;83;25935;-65
2022/08/29 07:22:21;;;;;;;;;;;;;;;16.73;80.54;100942.73;1690895;82;84300;-64
2022/08/29 07:24:47;;;;;;;;;;;;;;;16.83;80.56;100950.17;1695600;82;26496;-64
2022/08/29 07:27:13;;;;;;;;;;;;;;;17.02;80.39;100953.91;1689531;83;26567;-62
2022/08/29 07:29:39;;;;;;;;;;;;;;;17.11;80.20;100951.09;1700686;82;84205;-62
2022/08/29 07:32:06;;;;;;;;;;;;;;;17.10;79.78;100947.51;1696208;82;26665;-65
2022/08/29 07:34:32;;;;;;;;;;;;;;;17.07;79.54;100950.42;1696025;82;84395;-68
2022/08/29 07:36:58;;;;;;;;;;;;;;;17.08;79.64;100949.94;1698206;83;25758;-64
2022/08/29 07:39:25;;;;;;;;;;;;;;;17.14;79.46;100950.89;1696634;83;25907;-64
2022/08/29 07:41:54;;;;;;;;;;;;;;;17.15;79.52;100946.72;1689598;82;84156;-63
2022/08/29 07:44:19;;;;;;;;;;;;;;;17.27;79.44;100948.23;1672141;83;25761;-62
2022/08/29 07:46:45;;;;;;;;;;;;;;;17.29;79.06;100950.36;1691491;83;84372;-67
2022/08/29 07:49:11;;;;;;;;;;;;;;;17.28;79.01;100942.72;1691550;83;26137;-67
2022/08/29 07:51:38;;;;;;;;;;;;;;;17.25;78.90;100942.92;1692157;83;25836;-67
2022/08/29 07:54:04;;;;;;;;;;;;;;;17.27;78.96;100942.82;1686558;83;85077;-68
2022/08/29 07:56:36;;;;;;;;;;;;;;;17.32;78.86;100950.16;1686438;83;25850;-69
2022/08/29 07:59:02;;;;;;;;;;;;;;;17.34;78.81;100941.44;1679636;83;84298;-69
2022/08/29 08:01:28;;;;;;;;;;;;;;;17.40;78.84;100950.52;1681340;83;26422;-69
2022/08/29 08:03:55;;;;;;;;;;;;;;;17.45;78.69;100948.36;1684530;83;25410;-68
2022/08/29 08:06:22;;;;;;;;;;;;;;;17.51;78.64;100941.17;1685447;83;83984;-69
2022/08/29 08:08:49;;;;;;;;;;;;;;;17.56;78.57;100939.02;1689605;83;25764;-68
2022/08/29 08:11:15;;;;;;;;;;;;;;;17.63;78.50;100949.83;1687897;83;84537;-68
2022/08/29 08:13:41;;;;;;;;;;;;;;;17.71;78.10;100942.57;1683517;83;25870;-69
2022/08/29 08:16:10;;;;;;;;;;;;;;;17.76;77.73;100955.33;1684236;83;84171;-68
2022/08/29 08:18:37;;;;;;;;;;;;;;;17.82;77.69;100949.48;1686726;83;27446;-67
2022/08/29 08:21:03;;;;;;;;;;;;;;;17.87;77.51;100949.16;1695076;83;25863;-67
2022/08/29 08:23:30;;;;;;;;;;;;;;;17.94;77.46;100954.55;1692983;83;84858;-67
2022/08/29 08:25:56;;;;;;;;;;;;;;;18.07;77.26;100947.30;1695962;83;25808;-66
2022/08/29 08:28:22;;;;;;;;;;;;;;;18.19;77.17;100944.22;1688149;83;85154;-66
2022/08/29 08:30:47;;;;;;;;;;;;;;;18.25;76.78;100942.39;1692424;83;28005;-68
2022/08/29 08:33:13;;;;;;;;;;;;;;;18.37;76.64;100943.75;1685281;83;26349;-66
2022/08/29 08:35:39;;;;;;;;;;;;;;;18.46;76.59;100947.17;1693923;83;84394;-67
2022/08/29 08:38:07;;;;;;;;;;;;;;;18.66;76.23;100938.11;1683675;83;26487;-67
2022/08/29 08:40:33;;;;;;;;;;;;;;;18.80;75.48;100949.71;1690738;83;84866;-67
2022/08/29 08:43:00;;;;;;;;;;;;;;;18.88;74.92;100940.14;1684217;83;29606;-67
2022/08/29 08:45:32;;;;;;;;;;;;;;;18.95;74.80;100951.80;1682364;83;26740;-68
2022/08/29 08:48:08;;;;;;;;;;;;;;;19.07;73.71;100963.61;1689629;83;84968;-66
2022/08/29 08:50:50;;;;;;;;;;;;;;;19.12;72.50;100944.63;1688910;83;25810;-67
2022/08/29 08:53:41;;;;;;;;;;;;;;;19.23;72.11;100944.33;1689761;83;84131;-66
2022/08/29 08:56:32;;;;;;;;;;;;;;;19.27;72.04;100953.98;1692357;83;28099;-67
2022/08/29 08:59:04;;;;;;;;;;;;;;;19.34;71.76;100947.11;1691242;83;84011;-67
2022/08/29 09:01:39;;;;;;;;;;;;;;;19.36;71.75;100942.42;1688692;83;25869;-67
2022/08/29 09:04:31;;;;;;;;;;;;;;;19.36;71.43;100949.22;1693415;83;85424;-69
2022/08/29 09:07:04;;;;;;;;;;;;;;;19.40;71.68;100946.64;1686357;83;25754;-69
2022/08/29 09:09:45;;;;;;;;;;;;;;;19.51;70.68;100968.45;1675090;83;27436;-67
2022/08/29 09:12:31;;;;;;;;;;;;;;;19.45;69.37;100949.88;1688861;83;84167;-69
2022/08/29 09:15:07;;;;;;;;;;;;;;;19.49;69.03;100947.31;1686718;83;26480;-68
2022/08/29 09:17:51;;;;;;;;;;;;;;;19.50;67.52;100941.38;1685357;83;84180;-68
2022/08/29 09:20:21;;;;;;;;;;;;;;;19.45;68.09;100941.73;1690823;83;25992;-68
2022/08/29 09:23:01;;;;;;;;;;;;;;;19.52;67.87;100947.11;1686856;83;84206;-67
2022/08/29 09:25:29;;;;;;;;;;;;;;;19.63;67.51;100942.22;1696071;83;25895;-68
2022/08/29 09:27:57;;;;;;;;;;;;;;;19.67;67.98;100943.22;1674917;83;26601;-68
2022/08/29 09:30:26;;;;;;;;;;;;;;;19.85;66.84;100945.52;1690984;83;84518;-68
2022/08/29 09:32:56;;;;;;;;;;;;;;;19.96;66.95;100938.25;1688933;83;26359;-67
2022/08/29 09:35:28;;;;;;;;;;;;;;;20.00;66.65;100938.88;1681455;83;84479;-68
2022/08/29 09:37:57;;;;;;;;;;;;;;;20.04;66.88;100951.27;1693001;83;25760;-68
2022/08/29 09:40:23;;;;;;;;;;;;;;;20.14;66.13;100948.20;1679680;83;84280;-68
2022/08/29 09:43:01;;;;;;;;;;;;;;;20.12;65.53;100944.73;1685978;82;25892;-68
2022/08/29 09:45:26;;;;;;;;;;;;;;;20.09;65.31;100947.69;1693892;82;25714;-68
2022/08/29 09:48:16;;;;;;;;;;;;;;;20.15;64.77;100948.56;1699722;82;84333;-68
2022/08/29 09:50:43;;;;;;;;;;;;;;;20.28;63.84;100956.64;1700484;82;25712;-67
2022/08/29 09:53:09;;;;;;;;;;;;;;;20.35;63.10;100942.42;1703461;82;84403;-68
2022/08/29 09:55:43;;;;;;;;;;;;;;;20.33;62.41;100952.56;1704376;82;25807;-68
2022/08/29 09:58:22;;;;;;;;;;;;;;;20.32;62.96;100947.24;1694335;82;84116;-68
2022/08/29 10:01:10;;;;;;;;;;;;;;;20.41;62.41;100940.60;1699109;82;27457;-69
2022/08/29 10:03:58;;;;;;;;;;;;;;;20.40;61.83;100952.48;1701285;82;25816;-67
2022/08/29 10:06:27;;;;;;;;;;;;;;;20.43;61.96;100943.70;1703321;82;84334;-67
2022/08/29 10:09:00;;;;;;;;;;;;;;;20.55;61.97;100935.41;1705197;82;25955;-68
2022/08/29 10:11:53;;;;;;;;;;;;;;;20.66;61.62;100935.91;1702677;82;84183;-67
2022/08/29 10:14:35;;;;;;;;;;;;;;;20.84;61.04;100940.33;1701329;82;29581;-68
2022/08/29 10:19:49;;;;;;;;;;;;;;;20.86;60.86;100938.34;1704490;82;25754;-67
2022/08/29 10:22:45;;;;;;;;;;;;;;;20.91;60.73;100938.34;1704713;82;84622;-67
2022/08/29 10:25:18;;;;;;;;;;;;;;;20.96;60.51;100940.19;1695287;82;25668;-67
2022/08/29 10:27:51;;;;;;;;;;;;;;;21.00;59.83;100951.21;1693877;82;27449;-67
2022/08/29 10:30:20;;;;;;;;;;;;;;;21.11;59.93;100939.42;1699682;82;83923;-68
2022/08/29 10:32:53;;;;;;;;;;;;;;;21.20;60.00;100942.75;1694965;82;26389;-67
2022/08/29 10:35:31;;;;;;;;;;;;;;;21.25;59.62;100939.18;1696090;82;84368;-68
2022/08/29 10:38:00;;;;;;;;;;;;;;;21.34;59.54;100933.45;1700538;82;26172;-68
2022/08/29 10:40:46;;;;;;;;;;;;;;;21.46;59.14;100925.61;1701307;82;84335;-67
2022/08/29 10:43:32;;;;;;;;;;;;;;;21.65;58.54;100934.46;1695672;82;25824;-67
2022/08/29 10:46:16;;;;;;;;;;;;;;;21.90;58.60;100935.95;1694968;82;25748;-68
2022/08/29 10:48:48;;;;;;;;;;;;;;;22.04;57.53;100935.66;1699517;82;84176;-67
2022/08/29 10:51:24;;;;;;;;;;;;;;;22.08;57.13;100924.84;1699155;82;25772;-67
2022/08/29 10:53:53;;;;;;;;;;;;;;;22.10;55.67;100941.95;1701707;82;84125;-63
2022/08/29 10:56:25;;;;;;;;;;;;;;;21.94;56.73;100942.38;1701979;82;25788;-65
2022/08/29 10:59:12;;;;;;;;;;;;;;;21.92;56.30;100954.43;1698244;82;84132;-65
2022/08/29 11:01:45;;;;;;;;;;;;;;;21.83;56.03;100938.84;1705167;82;25824;-64
2022/08/29 11:04:22;;;;;;;;;;;;;;;21.92;56.21;100942.15;1698672;82;25967;-64
2022/08/29 11:07:00;;;;;;;;;;;;;;;21.99;56.40;100947.45;1704410;82;85210;-64
2022/08/29 11:09:39;;;;;;;;;;;;;;;21.95;55.74;100940.52;1705094;82;25787;-65
2022/08/29 11:12:14;;;;;;;;;;;;;;;22.01;56.17;100946.81;1703643;82;84283;-65
2022/08/29 11:14:53;;;;;;;;;;;;;;;22.03;56.37;100947.58;1694382;82;25754;-64
2022/08/29 11:17:21;;;;;;;;;;;;;;;21.99;55.95;100951.04;1696891;82;84858;-64
2022/08/29 11:20:10;;;;;;;;;;;;;;;21.87;55.92;100958.05;1698185;82;27546;-64
2022/08/29 11:22:48;;;;;;;;;;;;;;;21.83;55.49;100946.53;1704352;82;84440;-66
2022/08/29 11:25:17;;;;;;;;;;;;;;;21.82;55.27;100944.80;1698290;82;25763;-64
2022/08/29 11:28:02;;;;;;;;;;;;;;;21.83;55.00;100944.30;1701287;82;25791;-64
2022/08/29 11:30:44;;;;;;;;;;;;;;;21.86;54.95;100944.04;1709321;82;84349;-64
2022/08/29 11:33:16;;;;;;;;;;;;;;;21.93;55.25;100944.75;1703737;82;27407;-64
2022/08/29 11:36:21;;;;;;;;;;;;;;;21.89;55.27;100941.05;1705017;82;85304;-64
2022/08/29 11:39:05;;;;;;;;;;;;;;;21.96;55.58;100934.93;1690008;82;25719;-64
2022/08/29 11:41:37;;;;;;;;;;;;;;;22.08;55.27;100938.49;1697290;82;84187;-64
2022/08/29 11:44:15;;;;;;;;;;;;;;;22.33;54.08;100946.77;1695467;82;25873;-64
2022/08/29 11:46:44;;;;;;;;;;;;;;;22.39;54.39;100933.94;1700177;82;84458;-64
2022/08/29 11:49:32;;;;;;;;;;;;;;;22.56;52.86;100950.20;1699632;82;26488;-65
2022/08/29 11:52:10;;;;;;;;;;;;;;;22.64;53.78;100938.96;1706106;82;26432;-65
2022/08/29 11:54:40;;;;;;;;;;;;;;;22.67;53.01;100938.69;1695816;82;84607;-64
2022/08/29 11:57:13;;;;;;;;;;;;;;;22.75;52.75;100935.27;1701637;82;25812;-65
2022/08/29 11:59:53;;;;;;;;;;;;;;;22.94;51.92;100944.94;1701369;82;84481;-64
2022/08/29 12:02:32;;;;;;;;;;;;;;;22.98;51.70;100945.03;1697040;82;26472;-65
2022/08/29 12:05:16;;;;;;;;;;;;;;;23.01;52.44;100937.05;1638457;85;84720;-65
2022/08/29 12:07:48;;;;;;;;;;;;;;;23.05;52.09;100936.27;1664245;84;25983;-65
2022/08/29 12:10:28;;;;;;;;;;;;;;;22.91;52.21;100935.66;1693882;83;25743;-65
2022/08/29 12:12:58;;;;;;;;;;;;;;;22.90;51.32;100951.69;1691021;83;84427;-64
2022/08/29 12:15:37;;;;;;;;;;;;;;;22.91;50.94;100962.13;1691613;82;25825;-65
2022/08/29 12:18:14;;;;;;;;;;;;;;;22.88;51.31;100942.77;1691608;82;84849;-65
2022/08/29 12:20:42;;;;;;;;;;;;;;;22.76;50.81;100938.87;1694854;83;26822;-65
2022/08/29 12:23:14;;;;;;;;;;;;;;;22.59;50.62;100941.23;1699059;82;84317;-64
2022/08/29 12:25:49;;;;;;;;;;;;;;;22.57;51.01;100941.01;1689434;83;25818;-64
2022/08/29 12:28:19;;;;;;;;;;;;;;;22.56;51.03;100945.61;1694178;83;25740;-64
2022/08/29 12:30:52;;;;;;;;;;;;;;;22.53;50.62;100940.41;1691645;83;84230;-65
2022/08/29 12:33:27;;;;;;;;;;;;;;;22.49;50.63;100943.55;1694343;83;25760;-65
2022/08/29 12:36:26;;;;;;;;;;;;;;;22.44;50.82;100947.20;1690502;82;84065;-65
2022/08/29 12:39:15;;;;;;;;;;;;;;;22.42;51.12;100935.54;1696294;83;27467;-66
2022/08/29 12:42:16;;;;;;;;;;;;;;;22.35;50.72;100944.27;1697449;83;84138;-64
2022/08/29 12:44:48;;;;;;;;;;;;;;;22.25;50.78;100953.41;1697042;83;25704;-64
2022/08/29 12:47:32;;;;;;;;;;;;;;;22.26;51.31;100945.58;1691104;83;84609;-64
2022/08/29 12:50:16;;;;;;;;;;;;;;;22.28;51.38;100949.05;1695067;83;25756;-64
2022/08/29 12:52:41;;;;;;;;;;;;;;;22.28;51.00;100959.97;1698229;82;84291;-64
2022/08/29 12:55:19;;;;;;;;;;;;;;;22.16;51.09;100951.48;1643237;85;25753;-64